createdAt,value
2017-11-18T00:00:26.634Z,9.08
2017-11-18T00:01:36.454Z,9.09
2017-11-18T00:02:46.287Z,9.09
2017-11-18T00:03:56.379Z,9.11
2017-11-18T00:05:06.519Z,9.04
2017-11-18T00:06:16.671Z,9.11
2017-11-18T00:07:26.752Z,9.11
2017-11-18T00:08:36.049Z,9.17
2017-11-18T00:09:46.132Z,9.11
2017-11-18T00:10:56.218Z,9.01
2017-11-18T00:12:06.054Z,9.14
2017-11-18T00:13:16.170Z,9.09
2017-11-18T00:14:26.258Z,9
2017-11-18T00:15:36.113Z,9.05
2017-11-18T00:16:45.921Z,9.01
2017-11-18T00:17:55.492Z,9.03
2017-11-18T00:19:05.573Z,9.05
2017-11-18T00:20:15.419Z,9.08
2017-11-18T00:21:25.518Z,9.11
2017-11-18T00:22:35.360Z,9.14
2017-11-18T00:23:45.182Z,9.05
2017-11-18T00:24:55.000Z,9.11
2017-11-18T00:26:05.131Z,9.11
2017-11-18T00:27:15.220Z,9.14
2017-11-18T00:28:25.293Z,9.05
2017-11-18T00:29:35.120Z,9.16
2017-11-18T00:30:45.208Z,9.04
2017-11-18T00:31:55.294Z,9.09
2017-11-18T00:33:05.114Z,9.12
2017-11-18T00:34:14.928Z,9.11
2017-11-18T00:35:24.814Z,9.17
2017-11-18T00:36:34.378Z,9.19
2017-11-18T00:37:44.474Z,9.21
2017-11-18T00:38:54.565Z,9.2
2017-11-18T00:40:04.652Z,9.26
2017-11-18T00:41:14.584Z,9.19
2017-11-18T00:42:24.688Z,9.16
2017-11-18T00:43:34.514Z,9.24
2017-11-18T00:44:44.599Z,9.29
2017-11-18T00:45:54.698Z,9.21
2017-11-18T00:47:04.573Z,9.2
2017-11-18T00:48:14.392Z,9.17
2017-11-18T00:49:24.477Z,9.17
2017-11-18T00:50:34.577Z,9.14
2017-11-18T00:51:44.139Z,9.08
2017-11-18T00:52:54.324Z,9.16
2017-11-18T00:54:04.411Z,9.12
2017-11-18T00:55:14.250Z,9.03
2017-11-18T00:56:24.109Z,9
2017-11-18T00:57:33.944Z,9.11
2017-11-18T00:58:44.051Z,9.04
2017-11-18T00:59:53.330Z,9.12
2017-11-18T01:01:03.422Z,9.08
2017-11-18T01:02:13.495Z,9.03
2017-11-18T01:03:23.099Z,9.08
2017-11-18T01:04:32.936Z,9.09
2017-11-18T01:05:43.050Z,9.04
2017-11-18T01:06:53.152Z,9.08
2017-11-18T01:08:02.993Z,9.14
2017-11-18T01:09:12.545Z,9.16
2017-11-18T01:10:22.611Z,8.98
2017-11-18T01:11:32.729Z,9.01
2017-11-18T01:12:42.288Z,9.03
2017-11-18T01:13:53.005Z,8.97
2017-11-18T01:15:03.492Z,9.05
2017-11-18T01:16:13.727Z,8.97
2017-11-18T01:17:23.846Z,9.05
2017-11-18T01:18:33.965Z,9.05
2017-11-18T01:19:43.767Z,9.11
2017-11-18T01:20:53.628Z,9.08
2017-11-18T01:22:03.765Z,8.97
2017-11-18T01:23:13.889Z,9.05
2017-11-18T01:24:23.969Z,8.94
2017-11-18T01:25:34.055Z,8.94
2017-11-18T01:26:44.132Z,8.98
2017-11-18T01:27:54.273Z,8.98
2017-11-18T01:29:04.581Z,8.94
2017-11-18T01:30:14.844Z,8.95
2017-11-18T01:31:24.666Z,8.97
2017-11-18T01:32:34.643Z,8.95
2017-11-18T01:33:44.513Z,8.94
2017-11-18T01:34:54.318Z,8.98
2017-11-18T01:36:03.926Z,8.97
2017-11-18T01:37:13.473Z,9.08
2017-11-18T01:38:23.311Z,9.04
2017-11-18T01:39:33.125Z,9.05
2017-11-18T01:40:43.278Z,9.03
2017-11-18T01:41:53.367Z,9.05
2017-11-18T01:43:03.814Z,9.03
2017-11-18T01:44:13.738Z,9.12
2017-11-18T01:45:23.709Z,9.05
2017-11-18T01:46:33.813Z,9.01
2017-11-18T01:47:43.915Z,9.08
2017-11-18T01:48:53.714Z,9.09
2017-11-18T01:50:03.608Z,9.04
2017-11-18T01:51:13.704Z,9.09
2017-11-18T01:52:23.796Z,9.04
2017-11-18T01:53:33.678Z,9.05
2017-11-18T01:54:43.769Z,9.11
2017-11-18T01:55:53.919Z,8.94
2017-11-18T01:57:03.804Z,9.05
2017-11-18T01:58:13.650Z,9.03
2017-11-18T01:59:23.767Z,9.09
2017-11-18T02:00:33.862Z,9.12
2017-11-18T02:01:43.971Z,9.04
2017-11-18T02:02:53.789Z,9.16
2017-11-18T02:04:03.639Z,9.05
2017-11-18T02:05:13.724Z,9.16
2017-11-18T02:06:23.863Z,9.16
2017-11-18T02:07:33.947Z,9.09
2017-11-18T02:08:44.044Z,9.12
2017-11-18T02:09:53.932Z,8.92
2017-11-18T02:11:04.057Z,8.86
2017-11-18T02:12:14.588Z,8.94
2017-11-18T02:13:24.632Z,8.86
2017-11-18T02:14:34.732Z,8.86
2017-11-18T02:15:45.013Z,8.83
2017-11-18T02:16:54.844Z,8.95
2017-11-18T02:18:04.878Z,8.89
2017-11-18T02:19:14.959Z,8.97
2017-11-18T02:20:25.049Z,8.9
2017-11-18T02:21:34.883Z,8.95
2017-11-18T02:22:44.879Z,8.94
2017-11-18T02:23:55.032Z,8.9
2017-11-18T02:25:04.894Z,8.98
2017-11-18T02:26:14.974Z,8.95
2017-11-18T02:27:25.071Z,8.9
2017-11-18T02:28:34.896Z,8.97
2017-11-18T02:29:44.709Z,9
2017-11-18T02:30:54.795Z,9.04
2017-11-18T02:32:04.668Z,9.04
2017-11-18T02:33:14.754Z,8.92
2017-11-18T02:34:24.859Z,9.03
2017-11-18T02:35:34.966Z,9.04
2017-11-18T02:36:45.062Z,9.04
2017-11-18T02:37:54.873Z,9.04
2017-11-18T02:39:04.965Z,8.97
2017-11-18T02:40:15.067Z,9.08
2017-11-18T02:41:25.170Z,9
2017-11-18T02:42:34.997Z,9.03
2017-11-18T02:43:46.015Z,8.94
2017-11-18T02:44:55.572Z,8.98
2017-11-18T02:46:05.397Z,9.04
2017-11-18T02:47:15.499Z,9
2017-11-18T02:48:25.625Z,8.92
2017-11-18T02:49:35.737Z,8.92
2017-11-18T02:50:45.556Z,8.95
2017-11-18T02:51:55.631Z,8.87
2017-11-18T02:53:05.479Z,8.92
2017-11-18T02:54:15.575Z,8.9
2017-11-18T02:55:25.210Z,8.97
2017-11-18T02:56:35.312Z,8.97
2017-11-18T02:57:45.416Z,8.95
2017-11-18T02:58:55.227Z,9
2017-11-18T03:00:05.328Z,8.97
2017-11-18T03:01:15.194Z,8.98
2017-11-18T03:02:25.273Z,9
2017-11-18T03:33:49.500Z,6.57
2017-11-18T03:34:59.615Z,6.55
2017-11-18T03:36:09.423Z,6.54
2017-11-18T03:37:18.700Z,6.61
2017-11-18T03:38:28.505Z,6.7
2017-11-18T03:39:38.582Z,6.65
2017-11-18T03:40:48.389Z,6.82
2017-11-18T03:41:58.215Z,6.95
2017-11-18T03:43:07.768Z,7.23
2017-11-18T03:44:17.575Z,7.23
2017-11-18T03:45:27.717Z,7.47
2017-11-18T03:46:37.294Z,7.59
2017-11-18T03:47:47.368Z,7.77
2017-11-18T03:48:57.163Z,7.92
2017-11-18T03:50:06.977Z,8.07
2017-11-18T03:51:16.853Z,8.1
2017-11-18T03:52:26.942Z,8.31
2017-11-18T03:53:36.520Z,8.25
2017-11-18T03:54:46.336Z,8.49
2017-11-18T03:55:57.366Z,8.61
2017-11-18T03:57:07.237Z,8.62
2017-11-18T03:58:17.327Z,8.68
2017-11-18T03:59:27.428Z,8.8
2017-11-18T04:00:36.988Z,8.83
2017-11-18T04:01:47.086Z,8.9
2017-11-18T04:02:57.162Z,8.95
2017-11-18T04:04:07.230Z,8.95
2017-11-18T04:05:16.801Z,9.03
2017-11-18T04:06:26.357Z,9.08
2017-11-18T04:07:36.435Z,9.17
2017-11-18T04:08:46.531Z,9.17
2017-11-18T04:09:56.637Z,8.98
2017-11-18T04:11:06.457Z,9.14
2017-11-18T04:12:16.272Z,9.12
2017-11-18T04:13:26.359Z,9.17
2017-11-18T04:14:36.174Z,9.17
2017-11-18T04:15:46.260Z,9.19
2017-11-18T04:16:56.350Z,9.23
2017-11-18T04:18:06.457Z,9.24
2017-11-18T04:19:16.532Z,9.19
2017-11-18T04:20:26.680Z,9.24
2017-11-18T04:21:36.769Z,9.29
2017-11-18T04:22:47.490Z,9.24
2017-11-18T04:23:57.321Z,9.29
2017-11-18T04:25:07.150Z,9.26
2017-11-18T04:26:17.222Z,9.3
2017-11-18T04:27:27.303Z,9.32
2017-11-18T04:28:37.121Z,9.38
2017-11-18T04:29:47.208Z,9.24
2017-11-18T04:30:57.049Z,9.41
2017-11-18T04:32:06.594Z,9.35
2017-11-18T04:33:16.407Z,9.35
2017-11-18T04:34:26.490Z,9.38
2017-11-18T04:35:36.046Z,9.47
2017-11-18T04:36:45.618Z,9.48
2017-11-18T04:37:55.183Z,9.55
2017-11-18T04:39:05.757Z,9.44
2017-11-18T04:40:15.854Z,9.45
2017-11-18T04:41:25.947Z,9.53
2017-11-18T04:42:35.780Z,9.55
2017-11-18T04:43:45.890Z,9.45
2017-11-18T04:44:55.962Z,9.47
2017-11-18T04:46:05.777Z,9.52
2017-11-18T04:47:15.071Z,9.47
2017-11-18T04:48:24.623Z,9.48
2017-11-18T04:49:34.729Z,9.53
2017-11-18T04:50:44.828Z,9.52
2017-11-18T04:51:54.933Z,9.45
2017-11-18T04:53:04.749Z,9.44
2017-11-18T04:54:14.578Z,9.42
2017-11-18T04:55:24.694Z,9.42
2017-11-18T04:56:34.768Z,9.48
2017-11-18T04:57:44.590Z,9.52
2017-11-18T04:58:54.445Z,9.45
2017-11-18T05:00:03.993Z,9.5
2017-11-18T05:01:13.842Z,9.52
2017-11-18T05:02:23.663Z,9.5
2017-11-18T05:03:33.780Z,9.48
2017-11-18T05:04:43.860Z,9.5
2017-11-18T05:05:53.952Z,9.47
2017-11-18T05:07:04.047Z,9.42
2017-11-18T05:08:14.120Z,9.38
2017-11-18T05:09:23.679Z,9.21
2017-11-18T05:10:33.773Z,9.21
2017-11-18T05:11:43.574Z,9.14
2017-11-18T05:12:53.656Z,9.2
2017-11-18T05:14:03.790Z,9.26
2017-11-18T05:15:13.346Z,9.2
2017-11-18T05:16:23.414Z,9.21
2017-11-18T05:17:33.493Z,9.24
2017-11-18T05:18:43.586Z,9.19
2017-11-18T05:19:53.407Z,9.23
2017-11-18T05:21:03.496Z,9.19
2017-11-18T05:22:13.317Z,9.24
2017-11-18T05:23:23.153Z,9.2
2017-11-18T05:24:32.713Z,9.23
2017-11-18T05:25:42.552Z,9.2
2017-11-18T05:26:52.643Z,9.14
2017-11-18T05:28:02.712Z,9.26
2017-11-18T05:29:12.549Z,9.2
2017-11-18T05:30:21.841Z,9.23
2017-11-18T05:31:31.702Z,9.21
2017-11-18T05:32:41.538Z,9.16
2017-11-18T05:33:51.613Z,9.16
2017-11-18T05:35:01.706Z,9.24
2017-11-18T05:36:11.786Z,9.17
2017-11-18T05:37:21.924Z,9.17
2017-11-18T05:38:32.032Z,9.14
2017-11-18T05:39:41.840Z,9.21
2017-11-18T05:40:51.664Z,9.12
2017-11-18T05:42:01.485Z,9.12
2017-11-18T05:43:11.293Z,9.16
2017-11-18T05:44:21.404Z,9.14
2017-11-18T05:45:31.517Z,9.19
2017-11-18T05:46:41.072Z,9.05
2017-11-18T05:47:51.175Z,9.05
2017-11-18T05:49:01.273Z,9.17
2017-11-18T05:50:11.381Z,9.01
2017-11-18T05:51:20.928Z,9.19
2017-11-18T05:52:29.934Z,9.2
2017-11-18T05:53:40.021Z,9.14
2017-11-18T05:54:49.595Z,9.14
2017-11-18T05:55:59.679Z,9.05
2017-11-18T05:57:09.753Z,9.16
2017-11-18T05:58:19.845Z,9.16
2017-11-18T05:59:29.933Z,9.17
2017-11-18T06:00:39.808Z,9.14
2017-11-18T06:01:49.928Z,9.17
2017-11-18T06:03:00.042Z,9.2
2017-11-18T06:04:09.870Z,9.17
2017-11-18T06:05:19.946Z,9.21
2017-11-18T06:06:29.746Z,9.24
2017-11-18T06:07:39.836Z,9.21
2017-11-18T06:08:49.651Z,9.27
2017-11-18T06:09:59.463Z,9.27
2017-11-18T06:11:09.544Z,9.2
2017-11-18T06:12:19.652Z,9.09
2017-11-18T06:13:29.483Z,9.09
2017-11-18T06:14:39.322Z,9.12
2017-11-18T06:15:49.139Z,9.08
2017-11-18T06:16:58.977Z,8.95
2017-11-18T06:18:08.574Z,9.11
2017-11-18T06:19:18.643Z,9.04
2017-11-18T06:20:28.179Z,9.08
2017-11-18T06:21:38.257Z,8.98
2017-11-18T06:22:48.342Z,9.04
2017-11-18T06:23:58.433Z,9.01
2017-11-18T06:25:07.998Z,9.09
2017-11-18T06:26:18.081Z,9.08
2017-11-18T06:27:28.170Z,9.12
2017-11-18T06:28:38.248Z,9.01
2017-11-18T06:29:48.113Z,9.21
2017-11-18T06:30:57.930Z,9.12
2017-11-18T06:32:07.481Z,9.17
2017-11-18T06:33:17.296Z,9.14
2017-11-18T06:34:26.834Z,9.08
2017-11-18T06:35:36.952Z,9.05
2017-11-18T06:36:47.828Z,9.16
2017-11-18T06:37:57.382Z,9.01
2017-11-18T06:39:07.476Z,9.12
2017-11-18T06:40:17.040Z,9.09
2017-11-18T06:41:26.900Z,9.19
2017-11-18T06:42:36.717Z,9.05
2017-11-18T06:43:46.801Z,9.16
2017-11-18T06:44:56.895Z,9.19
2017-11-18T06:46:06.163Z,9.19
2017-11-18T06:47:16.357Z,9.27
2017-11-18T06:48:26.177Z,9.19
2017-11-18T06:49:36.044Z,9.27
2017-11-18T06:50:46.131Z,9.24
2017-11-18T06:51:56.201Z,9.34
2017-11-18T06:53:06.293Z,9.42
2017-11-18T06:54:16.110Z,9.55
2017-11-18T06:55:25.927Z,9.48
2017-11-18T06:56:36.034Z,9.57
2017-11-18T06:57:45.589Z,9.62
2017-11-18T06:58:55.727Z,9.66
2017-11-18T07:00:05.819Z,9.63
2017-11-18T07:01:15.383Z,9.77
2017-11-18T07:02:25.466Z,9.78
2017-11-18T07:03:35.529Z,9.85
2017-11-18T07:04:59.981Z,9.82
2017-11-18T07:06:10.083Z,9.84
2017-11-18T07:07:19.885Z,9.88
2017-11-18T07:08:29.693Z,9.85
2017-11-18T07:09:39.799Z,9.93
2017-11-18T07:10:49.621Z,9.85
2017-11-18T07:11:59.448Z,9.82
2017-11-18T07:13:09.531Z,9.81
2017-11-18T07:14:19.356Z,9.93
2017-11-18T07:15:29.183Z,9.95
2017-11-18T07:16:38.998Z,9.99
2017-11-18T07:17:49.080Z,9.9
2017-11-18T07:18:59.161Z,9.96
2017-11-18T07:20:09.018Z,9.93
2017-11-18T07:21:18.851Z,9.99
2017-11-18T07:22:28.667Z,10.05
2017-11-18T07:23:38.774Z,10.11
2017-11-18T07:24:48.851Z,10.07
2017-11-18T07:25:58.917Z,10.03
2017-11-18T07:27:08.752Z,10.13
2017-11-18T07:28:18.911Z,10.14
2017-11-18T07:29:29.008Z,10.14
2017-11-18T07:30:39.103Z,10.11
2017-11-18T07:31:48.936Z,10.15
2017-11-18T07:32:58.742Z,10.07
2017-11-18T07:34:08.829Z,10.03
2017-11-18T07:35:18.911Z,10.11
2017-11-18T07:36:28.991Z,10.1
2017-11-18T07:37:39.077Z,10.13
2017-11-18T07:38:49.158Z,10.11
2017-11-18T07:39:58.984Z,10.23
2017-11-18T07:41:08.576Z,10.29
2017-11-18T07:42:18.662Z,10.38
2017-11-18T07:43:28.749Z,10.33
2017-11-18T07:44:38.832Z,10.46
2017-11-18T07:45:49.429Z,10.46
2017-11-18T07:46:59.505Z,10.47
2017-11-18T07:48:09.594Z,10.46
2017-11-18T07:49:19.150Z,10.52
2017-11-18T07:50:29.226Z,10.51
2017-11-18T07:51:39.296Z,10.52
2017-11-18T07:52:49.380Z,10.51
2017-11-18T07:53:59.474Z,10.54
2017-11-18T07:55:09.042Z,10.7
2017-11-18T07:56:18.865Z,10.69
2017-11-18T07:57:28.735Z,10.75
2017-11-18T07:58:38.823Z,10.9
2017-11-18T07:59:48.628Z,10.94
2017-11-18T08:00:58.458Z,11.05
2017-11-18T08:02:08.541Z,11
2017-11-18T08:03:18.395Z,11.05
2017-11-18T08:04:28.467Z,11.05
2017-11-18T08:05:38.565Z,11.12
2017-11-18T08:06:48.395Z,11.13
2017-11-18T08:07:58.476Z,11.23
2017-11-18T08:09:08.605Z,11.2
2017-11-18T08:10:18.720Z,11.26
2017-11-18T08:11:29.056Z,11.46
2017-11-18T08:12:38.604Z,11.68
2017-11-18T08:13:48.681Z,11.68
2017-11-18T08:14:58.502Z,11.66
2017-11-18T08:16:08.057Z,11.63
2017-11-18T08:17:18.134Z,11.63
2017-11-18T08:18:27.951Z,11.71
2017-11-18T08:19:37.784Z,11.78
2017-11-18T08:20:47.601Z,11.73
2017-11-18T08:21:57.152Z,11.81
2017-11-18T08:23:06.990Z,11.82
2017-11-18T08:24:16.805Z,11.85
2017-11-18T08:25:26.882Z,11.91
2017-11-18T08:26:36.710Z,11.94
2017-11-18T08:27:46.510Z,11.91
2017-11-18T08:28:56.613Z,12.05
2017-11-18T08:30:06.620Z,12.1
2017-11-18T08:31:16.712Z,12.15
2017-11-18T08:32:26.537Z,12.25
2017-11-18T08:33:36.627Z,12.33
2017-11-18T08:34:46.705Z,12.45
2017-11-18T08:35:55.992Z,12.47
2017-11-18T08:37:05.819Z,12.59
2017-11-18T08:38:15.921Z,12.56
2017-11-18T08:39:25.748Z,12.62
2017-11-18T08:40:35.582Z,12.58
2017-11-18T08:41:45.662Z,12.74
2017-11-18T08:42:55.501Z,12.86
2017-11-18T08:44:05.593Z,12.89
2017-11-18T08:45:15.412Z,12.81
2017-11-18T08:46:25.528Z,12.91
2017-11-18T08:47:35.082Z,12.89
2017-11-18T08:48:44.389Z,12.96
2017-11-18T08:49:54.509Z,12.99
2017-11-18T08:51:04.599Z,12.94
2017-11-18T08:52:14.674Z,12.84
2017-11-18T08:53:24.772Z,12.92
2017-11-18T08:54:34.862Z,12.88
2017-11-18T08:55:44.683Z,12.89
2017-11-18T08:56:54.520Z,12.84
2017-11-18T08:58:04.347Z,12.89
2017-11-18T08:59:14.532Z,12.96
2017-11-18T09:00:24.103Z,12.91
2017-11-18T09:01:34.185Z,12.83
2017-11-18T09:02:44.277Z,12.76
2017-11-18T09:03:53.828Z,12.84
2017-11-18T09:05:03.947Z,12.8
2017-11-18T09:06:13.760Z,12.78
2017-11-18T09:07:23.866Z,12.91
2017-11-18T09:08:33.998Z,12.78
2017-11-18T09:09:43.828Z,12.77
2017-11-18T09:10:54.021Z,12.86
2017-11-18T09:12:04.099Z,12.86
2017-11-18T09:13:13.980Z,12.95
2017-11-18T09:14:23.831Z,12.99
2017-11-18T09:15:33.637Z,13.1
2017-11-18T09:16:43.734Z,13.06
2017-11-18T09:17:53.867Z,13.16
2017-11-18T09:19:03.690Z,13.17
2017-11-18T09:20:13.771Z,13.24
2017-11-18T09:21:23.591Z,13.2
2017-11-18T09:22:33.686Z,13.17
2017-11-18T09:23:43.780Z,13.2
2017-11-18T09:24:53.875Z,13.2
2017-11-18T09:26:03.443Z,13.14
2017-11-18T09:27:14.635Z,13.24
2017-11-18T09:28:24.739Z,13.24
2017-11-18T09:29:34.836Z,13.32
2017-11-18T09:30:44.750Z,13.31
2017-11-18T09:31:54.576Z,13.35
2017-11-18T09:33:04.682Z,13.35
2017-11-18T09:34:14.786Z,13.35
2017-11-18T09:35:24.893Z,13.42
2017-11-18T09:36:34.780Z,13.44
2017-11-18T09:37:44.596Z,13.35
2017-11-18T09:38:54.438Z,13.32
2017-11-18T09:40:04.263Z,13.32
2017-11-18T09:41:14.361Z,13.27
2017-11-18T09:42:24.459Z,13.31
2017-11-18T09:43:34.312Z,13.31
2017-11-18T09:44:44.396Z,13.39
2017-11-18T09:45:54.506Z,13.39
2017-11-18T09:47:04.310Z,13.47
2017-11-18T09:48:14.453Z,13.55
2017-11-18T09:49:24.283Z,13.65
2017-11-18T09:50:34.380Z,13.55
2017-11-18T09:51:44.503Z,14.15
2017-11-18T09:52:54.589Z,14.66
2017-11-18T09:54:04.746Z,14.86
2017-11-18T09:55:14.845Z,15.12
2017-11-18T09:56:24.934Z,15.49
2017-11-18T09:57:34.478Z,15.65
2017-11-18T09:58:44.308Z,15.73
2017-11-18T09:59:53.924Z,15.71
2017-11-18T10:01:03.757Z,15.74
2017-11-18T10:02:13.588Z,15.62
2017-11-18T10:03:23.423Z,15.63
2017-11-18T10:04:33.259Z,15.78
2017-11-18T10:05:43.362Z,15.63
2017-11-18T10:06:53.482Z,15.58
2017-11-18T10:08:03.564Z,15.63
2017-11-18T10:09:13.663Z,15.65
2017-11-18T10:10:23.494Z,15.74
2017-11-18T10:11:33.372Z,15.91
2017-11-18T10:12:43.190Z,16.1
2017-11-18T10:13:53.274Z,16.47
2017-11-18T10:15:03.350Z,16.44
2017-11-18T10:16:13.189Z,16.45
2017-11-18T10:17:24.486Z,16.55
2017-11-18T10:18:34.597Z,16.74
2017-11-18T10:19:44.429Z,16.77
2017-11-18T10:20:54.529Z,16.69
2017-11-18T10:22:04.349Z,16.66
2017-11-18T10:23:14.168Z,16.67
2017-11-18T10:24:24.281Z,16.54
2017-11-18T10:25:34.367Z,16.4
2017-11-18T10:26:44.454Z,16.69
2017-11-18T10:27:54.278Z,16.92
2017-11-18T10:29:04.398Z,16.57
2017-11-18T10:30:14.518Z,16.42
2017-11-18T10:31:24.331Z,16.21
2017-11-18T10:32:34.154Z,16.07
2017-11-18T10:33:44.250Z,15.95
2017-11-18T10:34:54.345Z,15.84
2017-11-18T10:36:04.425Z,15.96
2017-11-18T10:37:14.248Z,15.91
2017-11-18T10:38:24.362Z,15.92
2017-11-18T10:39:34.460Z,15.75
2017-11-18T10:40:44.540Z,15.73
2017-11-18T10:41:54.647Z,15.7
2017-11-18T10:43:04.789Z,15.75
2017-11-18T10:44:14.870Z,15.75
2017-11-18T10:45:24.966Z,15.68
2017-11-18T10:46:35.106Z,15.65
2017-11-18T10:47:45.213Z,15.68
2017-11-18T10:48:55.853Z,15.68
2017-11-18T10:50:06.398Z,15.59
2017-11-18T10:51:16.508Z,15.45
2017-11-18T10:52:26.634Z,15.49
2017-11-18T10:53:36.452Z,15.4
2017-11-18T10:54:46.551Z,15.38
2017-11-18T10:55:56.380Z,15.25
2017-11-18T10:57:06.469Z,15.27
2017-11-18T10:58:16.591Z,15.34
2017-11-18T10:59:26.394Z,15.26
2017-11-18T11:00:36.240Z,15.23
2017-11-18T11:01:46.062Z,15.04
2017-11-18T11:02:55.620Z,15.04
2017-11-18T11:04:06.516Z,15.1
2017-11-18T11:05:15.805Z,15.04
2017-11-18T11:06:25.630Z,15.05
2017-11-18T11:08:07.531Z,15.13
2017-11-18T11:09:17.390Z,15.15
2017-11-18T11:10:27.225Z,15.12
2017-11-18T11:11:37.043Z,15.27
2017-11-18T11:12:46.864Z,15.41
2017-11-18T11:13:56.752Z,15.53
2017-11-18T11:15:06.912Z,15.65
2017-11-18T11:16:17.103Z,15.6
2017-11-18T11:17:27.189Z,15.45
2017-11-18T11:18:37.292Z,15.45
2017-11-18T11:19:47.392Z,15.38
2017-11-18T11:20:57.550Z,15.33
2017-11-18T11:22:07.419Z,15.33
2017-11-18T11:23:17.499Z,15.26
2017-11-18T11:24:27.073Z,15.18
2017-11-18T11:25:37.237Z,15.1
2017-11-18T11:26:47.315Z,15.02
2017-11-18T11:27:57.420Z,14.97
2017-11-18T11:29:07.511Z,14.9
2017-11-18T11:30:17.606Z,14.89
2017-11-18T11:31:27.436Z,14.94
2017-11-18T11:32:37.655Z,14.82
2017-11-18T11:33:47.482Z,14.86
2017-11-18T11:34:57.332Z,14.74
2017-11-18T11:36:07.163Z,14.87
2017-11-18T11:37:17.012Z,14.87
2017-11-18T11:38:27.180Z,14.87
2017-11-18T11:39:37.415Z,14.87
2017-11-18T11:40:47.267Z,14.89
2017-11-18T11:41:57.394Z,14.9
2017-11-18T11:43:07.503Z,14.82
2017-11-18T11:44:17.409Z,14.8
2017-11-18T11:45:27.264Z,14.82
2017-11-18T11:46:37.097Z,14.75
2017-11-18T11:47:46.915Z,14.67
2017-11-18T11:48:57.135Z,14.71
2017-11-18T11:50:08.234Z,14.7
2017-11-18T11:51:18.070Z,14.74
2017-11-18T11:52:28.255Z,14.69
2017-11-18T11:53:37.808Z,14.7
2017-11-18T11:54:47.636Z,14.77
2017-11-18T11:55:57.792Z,14.71
2017-11-18T11:57:07.347Z,14.64
2017-11-18T11:58:17.438Z,14.64
2017-11-18T11:59:27.019Z,14.63
2017-11-18T12:00:36.863Z,14.69
2017-11-18T12:01:47.039Z,14.7
2017-11-18T12:02:57.205Z,14.69
2017-11-18T12:04:07.045Z,14.59
2017-11-18T12:05:16.616Z,14.59
2017-11-18T12:06:26.453Z,14.56
2017-11-18T12:07:36.366Z,14.46
2017-11-18T12:08:46.447Z,14.59
2017-11-18T12:09:56.555Z,14.64
2017-11-18T12:11:06.396Z,14.66
2017-11-18T12:12:16.504Z,14.66
2017-11-18T12:13:26.410Z,14.64
2017-11-18T12:14:36.258Z,14.64
2017-11-18T12:15:46.157Z,14.56
2017-11-18T12:16:56.291Z,14.67
2017-11-18T12:18:06.163Z,14.57
2017-11-18T12:19:16.385Z,14.51
2017-11-18T12:20:26.532Z,14.45
2017-11-18T12:21:36.657Z,14.42
2017-11-18T12:22:46.628Z,14.33
2017-11-18T12:23:56.243Z,14.27
2017-11-18T12:25:06.114Z,14.21
2017-11-18T12:26:16.195Z,14.08
2017-11-18T12:27:26.000Z,14.11
2017-11-18T12:28:36.131Z,14.03
2017-11-18T12:29:46.220Z,14.03
2017-11-18T12:30:56.116Z,14.05
2017-11-18T12:32:06.243Z,14.08
2017-11-18T12:33:15.923Z,14.2
2017-11-18T12:34:26.027Z,14.19
2017-11-18T12:35:35.858Z,14.13
2017-11-18T12:36:45.135Z,14.13
2017-11-18T12:37:55.268Z,14.11
2017-11-18T12:39:05.083Z,13.95
2017-11-18T12:40:14.966Z,13.86
2017-11-18T12:41:24.815Z,13.88
2017-11-18T12:42:34.416Z,13.81
2017-11-18T12:43:44.241Z,13.76
2017-11-18T12:44:54.085Z,13.73
2017-11-18T12:46:04.179Z,13.66
2017-11-18T12:47:13.745Z,13.6
2017-11-18T12:48:23.918Z,13.57
2017-11-18T12:49:33.736Z,13.62
2017-11-18T12:50:43.866Z,13.51
2017-11-18T12:51:53.697Z,13.54
2017-11-18T12:53:03.815Z,13.55
2017-11-18T12:54:13.907Z,13.54
2017-11-18T12:55:24.014Z,13.53
2017-11-18T12:56:34.144Z,13.53
2017-11-18T12:57:44.265Z,13.6
2017-11-18T12:58:54.090Z,13.54
2017-11-18T13:00:03.988Z,13.53
2017-11-18T13:01:13.268Z,13.5
2017-11-18T13:02:23.378Z,13.57
2017-11-18T13:03:33.196Z,13.48
2017-11-18T13:04:43.300Z,13.53
2017-11-18T13:05:53.162Z,13.5
2017-11-18T13:07:03.398Z,13.51
2017-11-18T13:08:13.522Z,13.53
2017-11-18T13:09:23.369Z,13.54
2017-11-18T13:10:33.495Z,13.83
2017-11-18T13:11:43.687Z,14.19
2017-11-18T13:12:53.773Z,14.42
2017-11-18T13:14:03.865Z,14.57
2017-11-18T13:15:13.687Z,14.6
2017-11-18T13:16:23.504Z,14.75
2017-11-18T13:17:33.630Z,14.89
2017-11-18T13:18:43.766Z,14.97
2017-11-18T13:19:53.599Z,14.94
2017-11-18T13:21:03.693Z,14.86
2017-11-18T13:22:13.521Z,14.71
2017-11-18T13:23:23.083Z,14.74
2017-11-18T13:24:33.172Z,14.69
2017-11-18T13:25:43.264Z,14.66
2017-11-18T13:26:53.095Z,14.64
2017-11-18T13:28:02.655Z,14.57
2017-11-18T13:29:12.482Z,14.48
2017-11-18T13:30:22.572Z,14.48
2017-11-18T13:31:32.397Z,14.44
2017-11-18T13:32:42.498Z,14.38
2017-11-18T13:33:52.320Z,14.28
2017-11-18T13:35:02.162Z,14.19
2017-11-18T13:36:11.992Z,14.16
2017-11-18T13:37:21.819Z,14.09
2017-11-18T13:38:31.627Z,13.99
2017-11-18T13:39:41.715Z,13.9
2017-11-18T13:40:51.588Z,13.87
2017-11-18T13:42:01.663Z,13.88
2017-11-18T13:43:11.774Z,13.76
2017-11-18T13:44:21.615Z,13.73
2017-11-18T13:45:31.739Z,13.76
2017-11-18T13:46:41.832Z,13.79
2017-11-18T13:47:51.921Z,13.66
2017-11-18T13:49:01.751Z,13.6
2017-11-18T13:50:11.849Z,13.32
2017-11-18T13:51:21.938Z,13.36
2017-11-18T13:52:32.063Z,13.36
2017-11-18T13:53:42.153Z,13.37
2017-11-18T13:54:52.245Z,13.25
2017-11-18T13:56:02.093Z,13.29
2017-11-18T13:57:11.940Z,13.14
2017-11-18T13:58:21.766Z,13.09
2017-11-18T13:59:31.863Z,13.03
2017-11-18T14:00:41.932Z,13.09
2017-11-18T14:01:51.766Z,12.96
2017-11-18T14:03:01.588Z,12.94
2017-11-18T14:04:11.759Z,12.86
2017-11-18T14:05:21.877Z,12.83
2017-11-18T14:06:31.698Z,12.69
2017-11-18T14:07:41.795Z,12.61
2017-11-18T14:08:51.884Z,12.55
2017-11-18T14:10:01.727Z,12.53
2017-11-18T14:11:11.015Z,12.43
2017-11-18T14:12:21.108Z,12.43
2017-11-18T14:13:30.935Z,12.34
2017-11-18T14:14:40.753Z,12.23
2017-11-18T14:15:50.850Z,12.16
2017-11-18T14:17:00.721Z,12.11
2017-11-18T14:18:11.097Z,12.15
2017-11-18T14:19:21.466Z,12.13
2017-11-18T14:20:32.165Z,12.04
2017-11-18T14:21:42.747Z,12.01
2017-11-18T14:22:52.806Z,12.01
2017-11-18T14:24:03.132Z,11.97
2017-11-18T14:25:12.961Z,11.79
2017-11-18T14:26:23.093Z,11.79
2017-11-18T14:27:33.184Z,11.81
2017-11-18T14:28:42.995Z,11.68
2017-11-18T14:29:53.086Z,11.7
2017-11-18T14:31:03.183Z,11.67
2017-11-18T14:32:13.301Z,11.67
2017-11-18T14:33:23.136Z,11.68
2017-11-18T14:34:33.468Z,11.67
2017-11-18T14:35:43.043Z,11.7
2017-11-18T14:36:52.870Z,11.7
2017-11-18T14:38:03.157Z,11.67
2017-11-18T14:39:13.265Z,11.71
2017-11-18T14:40:23.146Z,11.76
2017-11-18T14:41:32.965Z,11.68
2017-11-18T14:42:43.078Z,11.76
2017-11-18T14:43:52.626Z,11.64
2017-11-18T14:45:02.737Z,11.71
2017-11-18T14:46:12.364Z,11.68
2017-11-18T14:47:22.452Z,11.67
2017-11-18T14:48:32.283Z,11.67
2017-11-18T14:49:42.106Z,11.52
2017-11-18T14:50:52.197Z,11.59
2017-11-18T14:52:01.767Z,11.57
2017-11-18T14:53:11.621Z,11.61
2017-11-18T14:54:21.788Z,11.64
2017-11-18T14:55:31.624Z,11.61
2017-11-18T14:56:41.721Z,11.66
2017-11-18T14:57:51.911Z,11.68
2017-11-18T14:59:02.239Z,11.63
2017-11-18T15:00:12.362Z,11.61
2017-11-18T15:01:21.925Z,11.49
2017-11-18T15:02:32.084Z,11.45
2017-11-18T15:03:41.930Z,11.35
2017-11-18T15:04:51.756Z,11.21
2017-11-18T15:06:01.881Z,11.16
2017-11-18T15:07:11.970Z,11.15
2017-11-18T15:08:22.097Z,11.1
2017-11-18T15:09:32.021Z,11.05
2017-11-18T15:10:41.870Z,10.98
2017-11-18T15:11:51.691Z,11
2017-11-18T15:13:01.524Z,10.92
2017-11-18T15:14:11.356Z,10.92
2017-11-18T15:15:21.428Z,10.94
2017-11-18T15:16:31.084Z,11.03
2017-11-18T15:17:41.200Z,10.92
2017-11-18T15:18:51.058Z,10.95
2017-11-18T15:20:01.215Z,10.92
2017-11-18T15:21:12.106Z,11.03
2017-11-18T15:22:22.256Z,10.87
2017-11-18T15:23:31.815Z,10.95
2017-11-18T15:24:41.638Z,10.77
2017-11-18T15:25:51.768Z,10.83
2017-11-18T15:27:01.937Z,10.65
2017-11-18T15:28:12.883Z,10.59
2017-11-18T15:29:22.712Z,10.72
2017-11-18T15:30:32.544Z,10.52
2017-11-18T15:31:42.646Z,10.61
2017-11-18T15:32:52.798Z,10.57
2017-11-18T15:34:02.881Z,10.52
2017-11-18T15:35:13.905Z,10.39
2017-11-18T15:36:23.742Z,10.31
2017-11-18T15:37:33.915Z,10.29
2017-11-18T15:38:44.088Z,10.28
2017-11-18T15:39:53.900Z,10.13
2017-11-18T15:41:04.009Z,10.14
2017-11-18T15:42:13.829Z,10.1
2017-11-18T15:43:23.877Z,10.03
2017-11-18T15:44:33.699Z,10.1
2017-11-18T15:45:43.550Z,10.1
2017-11-18T15:46:53.700Z,10.13
2017-11-18T15:48:03.805Z,10.17